ěÝzenÝ letovÚho provozu ╚eskÚ republiky
Letiste: LKKB Aktualizace: 01.03.2021 19:27:24  UTC
 METAR LKKB 01.03. 19:30 ...
METAR LKKB 011930Z 07003KT 3000 BR NSC 01/M00 Q1034 NOSIG RMK YLO YLO=
 TAF LKKB 01.03. 17:00 ...
TAF LKKB 011700Z 0118/0218 06004KT 5000 NSC      TEMPO 0120/0210 3000 MIFG BR BKN005 OVC010      BECMG 0121/0123 14004KT      PROB30 0200/0209 VRB02KT 0600 FZFG VV002      TEMPO 0210/0212 8000 SCT015      BECMG 0212/0214 CAVOK=